sensor_id;sensor_type;location;lat;lon;timestamp;P1;durP1;ratioP1;P2;durP2;ratioP2
40204;SDS011;26963;42.666;23.366;2024-01-06T00:02:15;41.45;;;23.35;;
40204;SDS011;26963;42.666;23.366;2024-01-06T00:04:41;32.92;;;20.92;;
40204;SDS011;26963;42.666;23.366;2024-01-06T00:07:07;36.60;;;21.77;;
40204;SDS011;26963;42.666;23.366;2024-01-06T00:09:33;39.95;;;23.83;;
40204;SDS011;26963;42.666;23.366;2024-01-06T00:11:58;40.33;;;23.20;;
40204;SDS011;26963;42.666;23.366;2024-01-06T00:14:24;47.30;;;24.08;;
40204;SDS011;26963;42.666;23.366;2024-01-06T00:16:49;43.90;;;24.98;;
40204;SDS011;26963;42.666;23.366;2024-01-06T00:19:15;42.33;;;25.38;;
40204;SDS011;26963;42.666;23.366;2024-01-06T00:21:43;48.50;;;27.10;;
40204;SDS011;26963;42.666;23.366;2024-01-06T00:24:08;42.08;;;24.55;;
40204;SDS011;26963;42.666;23.366;2024-01-06T00:26:34;40.70;;;24.65;;
40204;SDS011;26963;42.666;23.366;2024-01-06T00:29:00;42.95;;;23.98;;
40204;SDS011;26963;42.666;23.366;2024-01-06T00:31:26;45.00;;;25.17;;
40204;SDS011;26963;42.666;23.366;2024-01-06T00:33:51;48.95;;;27.70;;
40204;SDS011;26963;42.666;23.366;2024-01-06T00:36:17;45.58;;;26.75;;
40204;SDS011;26963;42.666;23.366;2024-01-06T00:38:43;44.75;;;24.92;;
40204;SDS011;26963;42.666;23.366;2024-01-06T00:41:08;47.30;;;26.90;;
40204;SDS011;26963;42.666;23.366;2024-01-06T00:43:34;42.22;;;25.50;;
40204;SDS011;26963;42.666;23.366;2024-01-06T00:46:00;42.83;;;25.90;;
40204;SDS011;26963;42.666;23.366;2024-01-06T00:48:25;39.60;;;25.15;;
40204;SDS011;26963;42.666;23.366;2024-01-06T00:50:51;44.05;;;25.35;;
40204;SDS011;26963;42.666;23.366;2024-01-06T00:53:17;42.42;;;25.23;;
40204;SDS011;26963;42.666;23.366;2024-01-06T00:55:43;39.97;;;26.73;;
40204;SDS011;26963;42.666;23.366;2024-01-06T00:58:08;39.53;;;23.45;;
40204;SDS011;26963;42.666;23.366;2024-01-06T01:00:34;38.83;;;23.83;;
40204;SDS011;26963;42.666;23.366;2024-01-06T01:03:00;40.05;;;22.25;;
40204;SDS011;26963;42.666;23.366;2024-01-06T01:05:25;44.70;;;25.30;;
40204;SDS011;26963;42.666;23.366;2024-01-06T01:07:51;35.83;;;21.55;;
40204;SDS011;26963;42.666;23.366;2024-01-06T01:10:17;43.35;;;26.08;;
40204;SDS011;26963;42.666;23.366;2024-01-06T01:12:42;39.97;;;24.05;;
40204;SDS011;26963;42.666;23.366;2024-01-06T01:15:08;38.88;;;24.27;;
40204;SDS011;26963;42.666;23.366;2024-01-06T01:17:34;40.83;;;23.33;;
40204;SDS011;26963;42.666;23.366;2024-01-06T01:19:59;39.65;;;23.17;;
40204;SDS011;26963;42.666;23.366;2024-01-06T01:22:25;32.28;;;22.35;;
40204;SDS011;26963;42.666;23.366;2024-01-06T01:24:51;32.40;;;22.13;;
40204;SDS011;26963;42.666;23.366;2024-01-06T01:27:16;37.83;;;23.17;;
40204;SDS011;26963;42.666;23.366;2024-01-06T01:29:42;39.67;;;23.45;;
40204;SDS011;26963;42.666;23.366;2024-01-06T01:32:08;36.40;;;22.60;;
40204;SDS011;26963;42.666;23.366;2024-01-06T01:34:33;39.45;;;23.20;;
40204;SDS011;26963;42.666;23.366;2024-01-06T01:36:59;34.58;;;20.55;;
40204;SDS011;26963;42.666;23.366;2024-01-06T01:39:25;38.10;;;22.70;;
40204;SDS011;26963;42.666;23.366;2024-01-06T01:41:51;38.58;;;23.30;;
40204;SDS011;26963;42.666;23.366;2024-01-06T01:44:17;40.13;;;22.48;;
40204;SDS011;26963;42.666;23.366;2024-01-06T01:46:42;34.80;;;23.05;;
40204;SDS011;26963;42.666;23.366;2024-01-06T01:49:08;39.03;;;23.63;;
40204;SDS011;26963;42.666;23.366;2024-01-06T01:51:34;34.13;;;21.25;;
40204;SDS011;26963;42.666;23.366;2024-01-06T01:54:02;41.35;;;21.67;;
40204;SDS011;26963;42.666;23.366;2024-01-06T01:56:30;38.67;;;23.13;;
40204;SDS011;26963;42.666;23.366;2024-01-06T01:59:04;39.58;;;22.85;;
40204;SDS011;26963;42.666;23.366;2024-01-06T02:01:33;36.10;;;23.17;;
40204;SDS011;26963;42.666;23.366;2024-01-06T02:03:59;40.08;;;25.30;;
40204;SDS011;26963;42.666;23.366;2024-01-06T02:06:25;40.92;;;24.70;;
40204;SDS011;26963;42.666;23.366;2024-01-06T02:08:51;46.92;;;27.52;;
40204;SDS011;26963;42.666;23.366;2024-01-06T02:11:16;45.75;;;26.95;;
40204;SDS011;26963;42.666;23.366;2024-01-06T02:13:42;36.47;;;22.52;;
40204;SDS011;26963;42.666;23.366;2024-01-06T02:16:07;42.58;;;27.98;;
40204;SDS011;26963;42.666;23.366;2024-01-06T02:18:33;51.95;;;32.72;;
40204;SDS011;26963;42.666;23.366;2024-01-06T02:21:00;42.42;;;27.55;;
40204;SDS011;26963;42.666;23.366;2024-01-06T02:23:26;40.05;;;27.48;;
40204;SDS011;26963;42.666;23.366;2024-01-06T02:25:55;48.15;;;28.67;;
40204;SDS011;26963;42.666;23.366;2024-01-06T02:28:22;43.33;;;28.85;;
40204;SDS011;26963;42.666;23.366;2024-01-06T02:30:48;40.10;;;26.52;;
40204;SDS011;26963;42.666;23.366;2024-01-06T02:33:14;44.53;;;28.88;;
40204;SDS011;26963;42.666;23.366;2024-01-06T02:35:40;47.88;;;28.40;;
40204;SDS011;26963;42.666;23.366;2024-01-06T02:38:06;34.30;;;22.40;;
40204;SDS011;26963;42.666;23.366;2024-01-06T02:40:33;29.02;;;20.40;;
40204;SDS011;26963;42.666;23.366;2024-01-06T02:42:59;28.20;;;17.70;;
40204;SDS011;26963;42.666;23.366;2024-01-06T02:45:24;29.83;;;20.25;;
40204;SDS011;26963;42.666;23.366;2024-01-06T02:47:50;32.35;;;22.10;;
40204;SDS011;26963;42.666;23.366;2024-01-06T02:50:17;36.58;;;22.40;;
40204;SDS011;26963;42.666;23.366;2024-01-06T02:52:46;35.10;;;22.55;;
40204;SDS011;26963;42.666;23.366;2024-01-06T02:55:12;34.90;;;22.33;;
40204;SDS011;26963;42.666;23.366;2024-01-06T02:57:38;33.53;;;22.05;;
40204;SDS011;26963;42.666;23.366;2024-01-06T03:00:03;36.45;;;22.63;;
40204;SDS011;26963;42.666;23.366;2024-01-06T03:02:30;37.75;;;21.45;;
40204;SDS011;26963;42.666;23.366;2024-01-06T03:04:55;32.97;;;21.08;;
40204;SDS011;26963;42.666;23.366;2024-01-06T03:07:21;28.35;;;17.95;;
40204;SDS011;26963;42.666;23.366;2024-01-06T03:09:47;29.42;;;19.35;;
40204;SDS011;26963;42.666;23.366;2024-01-06T03:12:13;31.00;;;19.92;;
40204;SDS011;26963;42.666;23.366;2024-01-06T03:14:38;29.17;;;20.42;;
40204;SDS011;26963;42.666;23.366;2024-01-06T03:17:04;30.98;;;20.10;;
40204;SDS011;26963;42.666;23.366;2024-01-06T03:19:30;29.70;;;20.02;;
40204;SDS011;26963;42.666;23.366;2024-01-06T03:21:56;33.90;;;19.95;;
40204;SDS011;26963;42.666;23.366;2024-01-06T03:24:22;23.45;;;15.38;;
40204;SDS011;26963;42.666;23.366;2024-01-06T03:26:48;26.05;;;17.33;;
40204;SDS011;26963;42.666;23.366;2024-01-06T03:29:14;22.77;;;15.40;;
40204;SDS011;26963;42.666;23.366;2024-01-06T03:31:43;25.63;;;15.73;;
40204;SDS011;26963;42.666;23.366;2024-01-06T03:34:12;26.95;;;17.02;;
40204;SDS011;26963;42.666;23.366;2024-01-06T03:36:38;28.13;;;15.40;;
40204;SDS011;26963;42.666;23.366;2024-01-06T03:39:05;20.73;;;12.98;;
40204;SDS011;26963;42.666;23.366;2024-01-06T03:41:31;18.60;;;12.10;;
40204;SDS011;26963;42.666;23.366;2024-01-06T03:43:57;19.88;;;13.57;;
40204;SDS011;26963;42.666;23.366;2024-01-06T03:46:23;21.23;;;14.20;;
40204;SDS011;26963;42.666;23.366;2024-01-06T03:48:49;22.02;;;13.18;;
40204;SDS011;26963;42.666;23.366;2024-01-06T03:51:15;22.27;;;14.48;;
40204;SDS011;26963;42.666;23.366;2024-01-06T03:53:41;22.48;;;13.52;;
40204;SDS011;26963;42.666;23.366;2024-01-06T03:56:07;19.73;;;13.55;;
40204;SDS011;26963;42.666;23.366;2024-01-06T03:58:33;20.25;;;13.43;;
40204;SDS011;26963;42.666;23.366;2024-01-06T04:00:58;20.70;;;14.00;;
40204;SDS011;26963;42.666;23.366;2024-01-06T04:03:24;18.00;;;12.25;;
40204;SDS011;26963;42.666;23.366;2024-01-06T04:05:50;27.17;;;15.38;;
40204;SDS011;26963;42.666;23.366;2024-01-06T04:08:16;26.25;;;16.08;;
40204;SDS011;26963;42.666;23.366;2024-01-06T04:10:42;25.00;;;16.73;;
40204;SDS011;26963;42.666;23.366;2024-01-06T04:13:08;27.55;;;18.15;;
40204;SDS011;26963;42.666;23.366;2024-01-06T04:15:34;30.60;;;17.02;;
40204;SDS011;26963;42.666;23.366;2024-01-06T04:18:03;25.65;;;16.27;;
40204;SDS011;26963;42.666;23.366;2024-01-06T04:20:30;24.55;;;15.15;;
40204;SDS011;26963;42.666;23.366;2024-01-06T04:22:56;24.05;;;14.82;;
40204;SDS011;26963;42.666;23.366;2024-01-06T04:25:22;21.42;;;13.90;;
40204;SDS011;26963;42.666;23.366;2024-01-06T04:27:48;23.73;;;14.23;;
40204;SDS011;26963;42.666;23.366;2024-01-06T04:30:15;20.98;;;11.93;;
40204;SDS011;26963;42.666;23.366;2024-01-06T04:32:41;22.30;;;13.25;;
40204;SDS011;26963;42.666;23.366;2024-01-06T04:35:07;19.08;;;12.25;;
40204;SDS011;26963;42.666;23.366;2024-01-06T04:37:34;22.52;;;14.02;;
40204;SDS011;26963;42.666;23.366;2024-01-06T04:40:00;15.90;;;9.70;;
40204;SDS011;26963;42.666;23.366;2024-01-06T04:42:26;12.93;;;9.00;;
40204;SDS011;26963;42.666;23.366;2024-01-06T04:44:51;16.15;;;11.35;;
40204;SDS011;26963;42.666;23.366;2024-01-06T04:47:17;17.55;;;10.43;;
40204;SDS011;26963;42.666;23.366;2024-01-06T04:49:43;14.20;;;8.68;;
40204;SDS011;26963;42.666;23.366;2024-01-06T04:52:09;11.00;;;7.72;;
40204;SDS011;26963;42.666;23.366;2024-01-06T04:54:36;13.55;;;8.98;;
40204;SDS011;26963;42.666;23.366;2024-01-06T04:57:02;13.07;;;6.93;;
40204;SDS011;26963;42.666;23.366;2024-01-06T04:59:29;13.57;;;6.80;;
40204;SDS011;26963;42.666;23.366;2024-01-06T05:01:55;11.93;;;6.72;;
40204;SDS011;26963;42.666;23.366;2024-01-06T05:04:22;12.48;;;7.53;;
40204;SDS011;26963;42.666;23.366;2024-01-06T05:06:48;10.82;;;7.93;;
40204;SDS011;26963;42.666;23.366;2024-01-06T05:09:15;12.38;;;7.47;;
40204;SDS011;26963;42.666;23.366;2024-01-06T05:11:43;12.93;;;7.72;;
40204;SDS011;26963;42.666;23.366;2024-01-06T05:14:09;11.30;;;6.88;;
40204;SDS011;26963;42.666;23.366;2024-01-06T05:16:34;10.82;;;6.53;;
40204;SDS011;26963;42.666;23.366;2024-01-06T05:19:00;9.98;;;6.22;;
40204;SDS011;26963;42.666;23.366;2024-01-06T05:21:26;14.80;;;7.28;;
40204;SDS011;26963;42.666;23.366;2024-01-06T05:23:52;10.95;;;6.40;;
40204;SDS011;26963;42.666;23.366;2024-01-06T05:26:17;10.55;;;7.55;;
40204;SDS011;26963;42.666;23.366;2024-01-06T05:28:43;12.88;;;7.35;;
40204;SDS011;26963;42.666;23.366;2024-01-06T05:31:09;11.48;;;7.18;;
40204;SDS011;26963;42.666;23.366;2024-01-06T05:33:34;12.88;;;7.72;;
40204;SDS011;26963;42.666;23.366;2024-01-06T05:36:00;13.43;;;7.75;;
40204;SDS011;26963;42.666;23.366;2024-01-06T05:38:26;13.68;;;8.50;;
40204;SDS011;26963;42.666;23.366;2024-01-06T05:40:51;11.75;;;8.30;;
40204;SDS011;26963;42.666;23.366;2024-01-06T05:43:17;11.75;;;7.45;;
40204;SDS011;26963;42.666;23.366;2024-01-06T05:45:43;11.80;;;7.90;;
40204;SDS011;26963;42.666;23.366;2024-01-06T05:48:09;9.80;;;7.05;;
40204;SDS011;26963;42.666;23.366;2024-01-06T05:50:35;12.88;;;8.20;;
40204;SDS011;26963;42.666;23.366;2024-01-06T05:53:01;13.18;;;8.48;;
40204;SDS011;26963;42.666;23.366;2024-01-06T05:55:27;13.38;;;7.93;;
40204;SDS011;26963;42.666;23.366;2024-01-06T05:57:53;13.20;;;8.13;;
40204;SDS011;26963;42.666;23.366;2024-01-06T06:00:18;12.70;;;7.20;;
40204;SDS011;26963;42.666;23.366;2024-01-06T06:02:44;10.18;;;7.15;;
40204;SDS011;26963;42.666;23.366;2024-01-06T06:05:10;11.02;;;7.65;;
40204;SDS011;26963;42.666;23.366;2024-01-06T06:07:36;13.13;;;7.93;;
40204;SDS011;26963;42.666;23.366;2024-01-06T06:10:07;13.68;;;9.00;;
40204;SDS011;26963;42.666;23.366;2024-01-06T06:12:37;12.27;;;7.63;;
40204;SDS011;26963;42.666;23.366;2024-01-06T06:15:04;13.20;;;7.88;;
40204;SDS011;26963;42.666;23.366;2024-01-06T06:17:31;15.65;;;8.43;;
40204;SDS011;26963;42.666;23.366;2024-01-06T06:19:57;12.60;;;7.75;;
40204;SDS011;26963;42.666;23.366;2024-01-06T06:22:23;11.63;;;7.80;;
40204;SDS011;26963;42.666;23.366;2024-01-06T06:24:51;14.35;;;8.00;;
40204;SDS011;26963;42.666;23.366;2024-01-06T06:27:17;12.68;;;6.90;;
40204;SDS011;26963;42.666;23.366;2024-01-06T06:29:43;10.80;;;6.75;;
40204;SDS011;26963;42.666;23.366;2024-01-06T06:32:09;11.60;;;6.22;;
40204;SDS011;26963;42.666;23.366;2024-01-06T06:34:34;10.60;;;6.20;;
40204;SDS011;26963;42.666;23.366;2024-01-06T06:37:00;11.85;;;7.30;;
40204;SDS011;26963;42.666;23.366;2024-01-06T06:39:25;12.25;;;6.63;;
40204;SDS011;26963;42.666;23.366;2024-01-06T06:41:52;10.55;;;7.22;;
40204;SDS011;26963;42.666;23.366;2024-01-06T06:44:18;14.10;;;9.23;;
40204;SDS011;26963;42.666;23.366;2024-01-06T06:46:43;17.48;;;11.32;;
40204;SDS011;26963;42.666;23.366;2024-01-06T06:49:09;22.60;;;12.93;;
40204;SDS011;26963;42.666;23.366;2024-01-06T06:51:35;20.40;;;13.15;;
40204;SDS011;26963;42.666;23.366;2024-01-06T06:54:01;18.55;;;11.38;;
40204;SDS011;26963;42.666;23.366;2024-01-06T06:56:27;13.88;;;7.50;;
40204;SDS011;26963;42.666;23.366;2024-01-06T06:58:53;13.68;;;7.75;;
40204;SDS011;26963;42.666;23.366;2024-01-06T07:01:18;13.90;;;8.05;;
40204;SDS011;26963;42.666;23.366;2024-01-06T07:03:44;15.55;;;8.55;;
40204;SDS011;26963;42.666;23.366;2024-01-06T07:06:12;12.65;;;7.22;;
40204;SDS011;26963;42.666;23.366;2024-01-06T07:08:38;30.08;;;20.88;;
40204;SDS011;26963;42.666;23.366;2024-01-06T07:11:04;23.75;;;15.77;;
40204;SDS011;26963;42.666;23.366;2024-01-06T07:13:30;15.55;;;10.10;;
40204;SDS011;26963;42.666;23.366;2024-01-06T07:15:55;21.23;;;10.02;;
40204;SDS011;26963;42.666;23.366;2024-01-06T07:18:21;15.43;;;9.07;;
40204;SDS011;26963;42.666;23.366;2024-01-06T07:20:48;22.45;;;15.20;;
40204;SDS011;26963;42.666;23.366;2024-01-06T07:23:14;17.42;;;11.95;;
40204;SDS011;26963;42.666;23.366;2024-01-06T07:25:39;18.23;;;11.57;;
40204;SDS011;26963;42.666;23.366;2024-01-06T07:28:06;17.27;;;10.77;;
40204;SDS011;26963;42.666;23.366;2024-01-06T07:30:33;18.95;;;12.50;;
40204;SDS011;26963;42.666;23.366;2024-01-06T07:32:59;15.50;;;9.57;;
40204;SDS011;26963;42.666;23.366;2024-01-06T07:35:25;16.52;;;10.40;;
40204;SDS011;26963;42.666;23.366;2024-01-06T07:37:51;14.30;;;9.30;;
40204;SDS011;26963;42.666;23.366;2024-01-06T07:40:16;14.18;;;8.90;;
40204;SDS011;26963;42.666;23.366;2024-01-06T07:42:42;17.02;;;10.82;;
40204;SDS011;26963;42.666;23.366;2024-01-06T07:45:09;18.38;;;10.52;;
40204;SDS011;26963;42.666;23.366;2024-01-06T07:47:35;16.17;;;10.55;;
40204;SDS011;26963;42.666;23.366;2024-01-06T07:50:00;21.60;;;11.15;;
40204;SDS011;26963;42.666;23.366;2024-01-06T07:52:27;21.15;;;11.05;;
40204;SDS011;26963;42.666;23.366;2024-01-06T07:54:53;16.40;;;10.60;;
40204;SDS011;26963;42.666;23.366;2024-01-06T07:57:18;17.08;;;10.30;;
40204;SDS011;26963;42.666;23.366;2024-01-06T07:59:45;18.00;;;10.15;;
40204;SDS011;26963;42.666;23.366;2024-01-06T08:02:11;14.85;;;10.80;;
40204;SDS011;26963;42.666;23.366;2024-01-06T08:04:36;22.60;;;10.95;;
40204;SDS011;26963;42.666;23.366;2024-01-06T08:07:02;14.73;;;10.95;;
40204;SDS011;26963;42.666;23.366;2024-01-06T08:09:28;20.67;;;11.13;;
40204;SDS011;26963;42.666;23.366;2024-01-06T08:11:53;19.20;;;11.43;;
40204;SDS011;26963;42.666;23.366;2024-01-06T08:14:19;16.80;;;10.73;;
40204;SDS011;26963;42.666;23.366;2024-01-06T08:16:44;17.30;;;10.48;;
40204;SDS011;26963;42.666;23.366;2024-01-06T08:19:11;19.00;;;10.52;;
40204;SDS011;26963;42.666;23.366;2024-01-06T08:21:36;14.05;;;9.85;;
40204;SDS011;26963;42.666;23.366;2024-01-06T08:24:02;18.83;;;10.88;;
40204;SDS011;26963;42.666;23.366;2024-01-06T08:26:28;19.83;;;9.77;;
40204;SDS011;26963;42.666;23.366;2024-01-06T08:28:54;17.15;;;10.52;;
40204;SDS011;26963;42.666;23.366;2024-01-06T08:31:19;19.05;;;11.73;;
40204;SDS011;26963;42.666;23.366;2024-01-06T08:33:45;16.77;;;12.02;;
40204;SDS011;26963;42.666;23.366;2024-01-06T08:36:11;27.98;;;15.95;;
40204;SDS011;26963;42.666;23.366;2024-01-06T08:38:37;52.65;;;37.53;;
40204;SDS011;26963;42.666;23.366;2024-01-06T08:41:03;51.50;;;33.95;;
40204;SDS011;26963;42.666;23.366;2024-01-06T08:43:29;40.55;;;29.85;;
40204;SDS011;26963;42.666;23.366;2024-01-06T08:45:54;40.47;;;28.40;;
40204;SDS011;26963;42.666;23.366;2024-01-06T08:48:20;39.65;;;27.05;;
40204;SDS011;26963;42.666;23.366;2024-01-06T08:50:46;36.10;;;25.20;;
40204;SDS011;26963;42.666;23.366;2024-01-06T08:53:13;43.38;;;27.17;;
40204;SDS011;26963;42.666;23.366;2024-01-06T08:55:40;48.75;;;28.98;;
40204;SDS011;26963;42.666;23.366;2024-01-06T08:58:06;61.28;;;41.45;;
40204;SDS011;26963;42.666;23.366;2024-01-06T09:00:32;55.90;;;40.40;;
40204;SDS011;26963;42.666;23.366;2024-01-06T09:02:57;73.10;;;48.95;;
40204;SDS011;26963;42.666;23.366;2024-01-06T09:05:23;99.13;;;69.82;;
40204;SDS011;26963;42.666;23.366;2024-01-06T09:07:49;81.63;;;57.28;;
40204;SDS011;26963;42.666;23.366;2024-01-06T09:10:16;93.30;;;62.50;;
40204;SDS011;26963;42.666;23.366;2024-01-06T09:12:44;72.53;;;48.50;;
40204;SDS011;26963;42.666;23.366;2024-01-06T09:15:10;70.15;;;47.92;;
40204;SDS011;26963;42.666;23.366;2024-01-06T09:17:36;66.78;;;47.38;;
40204;SDS011;26963;42.666;23.366;2024-01-06T09:20:02;65.65;;;44.72;;
40204;SDS011;26963;42.666;23.366;2024-01-06T09:22:28;58.38;;;43.13;;
40204;SDS011;26963;42.666;23.366;2024-01-06T09:24:54;60.33;;;43.65;;
40204;SDS011;26963;42.666;23.366;2024-01-06T09:27:19;52.35;;;36.65;;
40204;SDS011;26963;42.666;23.366;2024-01-06T09:29:45;49.47;;;35.58;;
40204;SDS011;26963;42.666;23.366;2024-01-06T09:32:11;57.15;;;43.10;;
40204;SDS011;26963;42.666;23.366;2024-01-06T09:34:38;48.63;;;34.92;;
40204;SDS011;26963;42.666;23.366;2024-01-06T09:37:04;45.80;;;32.47;;
40204;SDS011;26963;42.666;23.366;2024-01-06T09:39:30;49.55;;;34.03;;
40204;SDS011;26963;42.666;23.366;2024-01-06T09:41:58;46.35;;;31.35;;
40204;SDS011;26963;42.666;23.366;2024-01-06T09:44:24;38.42;;;25.63;;
40204;SDS011;26963;42.666;23.366;2024-01-06T09:46:50;36.47;;;25.27;;
40204;SDS011;26963;42.666;23.366;2024-01-06T09:49:22;33.50;;;24.52;;
40204;SDS011;26963;42.666;23.366;2024-01-06T09:51:50;30.55;;;21.92;;
40204;SDS011;26963;42.666;23.366;2024-01-06T09:54:22;29.52;;;21.88;;
40204;SDS011;26963;42.666;23.366;2024-01-06T09:56:51;32.85;;;22.55;;
40204;SDS011;26963;42.666;23.366;2024-01-06T09:59:18;30.95;;;22.70;;
40204;SDS011;26963;42.666;23.366;2024-01-06T10:01:45;32.88;;;22.30;;
40204;SDS011;26963;42.666;23.366;2024-01-06T10:04:11;37.03;;;23.02;;
40204;SDS011;26963;42.666;23.366;2024-01-06T10:06:36;31.23;;;22.02;;
40204;SDS011;26963;42.666;23.366;2024-01-06T10:09:02;30.45;;;21.50;;
40204;SDS011;26963;42.666;23.366;2024-01-06T10:11:30;26.05;;;18.92;;
40204;SDS011;26963;42.666;23.366;2024-01-06T10:13:56;35.03;;;20.70;;
40204;SDS011;26963;42.666;23.366;2024-01-06T10:16:21;27.85;;;18.70;;
40204;SDS011;26963;42.666;23.366;2024-01-06T10:18:47;25.38;;;18.33;;
40204;SDS011;26963;42.666;23.366;2024-01-06T10:21:13;34.83;;;22.77;;
40204;SDS011;26963;42.666;23.366;2024-01-06T10:23:42;36.78;;;23.38;;
40204;SDS011;26963;42.666;23.366;2024-01-06T10:26:12;30.70;;;21.60;;
40204;SDS011;26963;42.666;23.366;2024-01-06T10:28:38;34.53;;;23.42;;
40204;SDS011;26963;42.666;23.366;2024-01-06T10:31:03;30.83;;;22.55;;
40204;SDS011;26963;42.666;23.366;2024-01-06T10:33:29;32.97;;;21.20;;
40204;SDS011;26963;42.666;23.366;2024-01-06T10:35:58;32.13;;;21.40;;
40204;SDS011;26963;42.666;23.366;2024-01-06T10:38:25;31.15;;;20.83;;
40204;SDS011;26963;42.666;23.366;2024-01-06T10:43:35;25.33;;;17.58;;
40204;SDS011;26963;42.666;23.366;2024-01-06T10:46:03;29.95;;;17.75;;
40204;SDS011;26963;42.666;23.366;2024-01-06T10:48:34;24.17;;;16.10;;
40204;SDS011;26963;42.666;23.366;2024-01-06T10:51:00;26.65;;;14.80;;
40204;SDS011;26963;42.666;23.366;2024-01-06T10:53:33;25.48;;;15.70;;
40204;SDS011;26963;42.666;23.366;2024-01-06T10:56:02;32.92;;;15.48;;
40204;SDS011;26963;42.666;23.366;2024-01-06T10:58:29;24.65;;;15.77;;
40204;SDS011;26963;42.666;23.366;2024-01-06T11:00:57;27.05;;;17.10;;
40204;SDS011;26963;42.666;23.366;2024-01-06T11:03:24;23.67;;;16.98;;
40204;SDS011;26963;42.666;23.366;2024-01-06T11:05:50;23.23;;;15.45;;
40204;SDS011;26963;42.666;23.366;2024-01-06T11:08:19;26.95;;;15.07;;
40204;SDS011;26963;42.666;23.366;2024-01-06T11:10:47;30.25;;;14.60;;
40204;SDS011;26963;42.666;23.366;2024-01-06T11:13:20;19.10;;;12.73;;
40204;SDS011;26963;42.666;23.366;2024-01-06T11:15:48;23.08;;;11.85;;
40204;SDS011;26963;42.666;23.366;2024-01-06T11:23:41;19.27;;;11.00;;
40204;SDS011;26963;42.666;23.366;2024-01-06T11:26:06;18.88;;;10.65;;
40204;SDS011;26963;42.666;23.366;2024-01-06T11:28:43;19.13;;;10.07;;
40204;SDS011;26963;42.666;23.366;2024-01-06T11:31:12;20.33;;;10.80;;
40204;SDS011;26963;42.666;23.366;2024-01-06T11:33:45;18.58;;;10.73;;
40204;SDS011;26963;42.666;23.366;2024-01-06T11:36:14;15.90;;;8.85;;
40204;SDS011;26963;42.666;23.366;2024-01-06T11:38:40;18.67;;;10.38;;
40204;SDS011;26963;42.666;23.366;2024-01-06T11:41:07;14.65;;;9.75;;
40204;SDS011;26963;42.666;23.366;2024-01-06T11:43:36;15.73;;;10.95;;
40204;SDS011;26963;42.666;23.366;2024-01-06T11:46:05;17.48;;;10.88;;
40204;SDS011;26963;42.666;23.366;2024-01-06T11:48:32;16.90;;;11.07;;
40204;SDS011;26963;42.666;23.366;2024-01-06T11:50:58;17.10;;;11.32;;
40204;SDS011;26963;42.666;23.366;2024-01-06T11:53:29;16.52;;;10.90;;
40204;SDS011;26963;42.666;23.366;2024-01-06T11:55:55;21.40;;;11.55;;
40204;SDS011;26963;42.666;23.366;2024-01-06T11:58:20;21.30;;;12.05;;
40204;SDS011;26963;42.666;23.366;2024-01-06T12:00:54;18.13;;;11.40;;
40204;SDS011;26963;42.666;23.366;2024-01-06T12:03:22;18.27;;;11.30;;
40204;SDS011;26963;42.666;23.366;2024-01-06T12:06:09;20.52;;;14.18;;
40204;SDS011;26963;42.666;23.366;2024-01-06T12:08:35;41.92;;;25.17;;
40204;SDS011;26963;42.666;23.366;2024-01-06T12:11:04;21.90;;;14.77;;
40204;SDS011;26963;42.666;23.366;2024-01-06T12:13:31;21.65;;;12.20;;
40204;SDS011;26963;42.666;23.366;2024-01-06T12:15:56;20.95;;;12.48;;
40204;SDS011;26963;42.666;23.366;2024-01-06T12:18:22;22.48;;;12.43;;
40204;SDS011;26963;42.666;23.366;2024-01-06T12:20:52;21.48;;;12.10;;
40204;SDS011;26963;42.666;23.366;2024-01-06T12:23:27;18.48;;;11.45;;
40204;SDS011;26963;42.666;23.366;2024-01-06T12:25:54;18.05;;;10.55;;
40204;SDS011;26963;42.666;23.366;2024-01-06T12:28:20;17.75;;;11.07;;
40204;SDS011;26963;42.666;23.366;2024-01-06T12:30:46;21.25;;;10.93;;
40204;SDS011;26963;42.666;23.366;2024-01-06T12:33:12;20.17;;;10.32;;
40204;SDS011;26963;42.666;23.366;2024-01-06T12:35:39;20.13;;;10.82;;
40204;SDS011;26963;42.666;23.366;2024-01-06T12:38:04;20.80;;;11.18;;
40204;SDS011;26963;42.666;23.366;2024-01-06T12:40:34;18.02;;;11.85;;
40204;SDS011;26963;42.666;23.366;2024-01-06T12:43:02;18.50;;;11.13;;
40204;SDS011;26963;42.666;23.366;2024-01-06T12:45:28;19.23;;;11.65;;
40204;SDS011;26963;42.666;23.366;2024-01-06T12:47:54;23.23;;;11.80;;
40204;SDS011;26963;42.666;23.366;2024-01-06T12:50:19;19.77;;;11.32;;
40204;SDS011;26963;42.666;23.366;2024-01-06T12:52:46;20.92;;;12.80;;
40204;SDS011;26963;42.666;23.366;2024-01-06T12:55:12;43.33;;;28.95;;
40204;SDS011;26963;42.666;23.366;2024-01-06T12:57:38;29.95;;;19.38;;
40204;SDS011;26963;42.666;23.366;2024-01-06T13:00:03;19.10;;;12.50;;
40204;SDS011;26963;42.666;23.366;2024-01-06T13:02:36;17.90;;;10.82;;
40204;SDS011;26963;42.666;23.366;2024-01-06T13:05:02;15.88;;;10.55;;
40204;SDS011;26963;42.666;23.366;2024-01-06T13:57:19;12.40;;;6.15;;
40204;SDS011;26963;42.666;23.366;2024-01-06T13:59:46;11.20;;;6.43;;
40204;SDS011;26963;42.666;23.366;2024-01-06T14:02:11;19.05;;;8.05;;
40204;SDS011;26963;42.666;23.366;2024-01-06T14:04:37;10.50;;;6.72;;
40204;SDS011;26963;42.666;23.366;2024-01-06T14:07:03;10.13;;;6.38;;
40204;SDS011;26963;42.666;23.366;2024-01-06T14:09:29;14.98;;;6.97;;
40204;SDS011;26963;42.666;23.366;2024-01-06T14:11:55;13.10;;;6.18;;
40204;SDS011;26963;42.666;23.366;2024-01-06T14:14:21;18.17;;;12.32;;
40204;SDS011;26963;42.666;23.366;2024-01-06T14:16:47;39.60;;;26.02;;
40204;SDS011;26963;42.666;23.366;2024-01-06T14:19:12;17.27;;;11.40;;
40204;SDS011;26963;42.666;23.366;2024-01-06T14:21:39;14.32;;;9.10;;
40204;SDS011;26963;42.666;23.366;2024-01-06T14:24:05;10.75;;;6.55;;
40204;SDS011;26963;42.666;23.366;2024-01-06T14:26:31;10.88;;;6.88;;
40204;SDS011;26963;42.666;23.366;2024-01-06T14:28:57;13.10;;;6.97;;
40204;SDS011;26963;42.666;23.366;2024-01-06T14:31:24;12.05;;;6.72;;
40204;SDS011;26963;42.666;23.366;2024-01-06T14:33:53;16.02;;;11.55;;
40204;SDS011;26963;42.666;23.366;2024-01-06T14:36:20;15.70;;;8.55;;
40204;SDS011;26963;42.666;23.366;2024-01-06T14:38:46;14.88;;;8.85;;
40204;SDS011;26963;42.666;23.366;2024-01-06T14:41:11;14.40;;;8.48;;
40204;SDS011;26963;42.666;23.366;2024-01-06T14:43:37;14.68;;;8.10;;
40204;SDS011;26963;42.666;23.366;2024-01-06T14:46:02;15.02;;;9.18;;
40204;SDS011;26963;42.666;23.366;2024-01-06T14:48:30;20.40;;;9.48;;
40204;SDS011;26963;42.666;23.366;2024-01-06T14:50:55;21.67;;;9.07;;
40204;SDS011;26963;42.666;23.366;2024-01-06T14:53:21;13.32;;;8.52;;
40204;SDS011;26963;42.666;23.366;2024-01-06T14:55:48;15.57;;;8.77;;
40204;SDS011;26963;42.666;23.366;2024-01-06T14:58:13;14.63;;;7.82;;
40204;SDS011;26963;42.666;23.366;2024-01-06T15:00:39;16.17;;;8.02;;
40204;SDS011;26963;42.666;23.366;2024-01-06T15:03:04;13.95;;;7.63;;
40204;SDS011;26963;42.666;23.366;2024-01-06T15:05:30;17.13;;;8.27;;